Sunset Whitney Ranch, California
Current Conditions -  °F | °C
As of 6:55 PM on Tuesday 21 Oct 2014 (Local Time) from KLHM Reporting Station
Clear Clear  
Wind Chill: 61°   Ceiling: Unl
Heat Index: 61°   Visibility: 10mi
Dew Point: 37°   Wind: 0mph
Humidity: 42%   Direction: NA
Pressure: 29.99"   Gusts: NA
Location:  38.8019°N, 121.249°W
Report Text: KLHM 220155Z AUTO 00000KT 10SM CLR 16/03 A2999 RMK AO1
Loading
Personal Weather Stations






























Interactive Weather Map
Tropical Storm Tracking
New forecast layout! Learn more

10-Day Weather Forecast

Advertisements
Track Severe Weather on mobile